createdAt,value
2017-09-10T00:01:01.379Z,11.93
2017-09-10T00:03:28.164Z,12.60
2017-09-10T00:05:54.922Z,14.23
2017-09-10T00:08:21.706Z,11.97
2017-09-10T00:10:48.499Z,11.50
2017-09-10T00:13:15.256Z,15.67
2017-09-10T00:15:42.018Z,14.60
2017-09-10T00:18:08.800Z,14.93
2017-09-10T00:20:35.569Z,11.80
2017-09-10T00:23:02.340Z,13.27
2017-09-10T00:25:29.137Z,12.67
2017-09-10T00:27:55.879Z,12.97
2017-09-10T00:30:22.622Z,17.20
2017-09-10T00:32:49.466Z,13.17
2017-09-10T00:35:16.233Z,13.13
2017-09-10T00:37:43.022Z,15.23
2017-09-10T00:40:09.803Z,13.90
2017-09-10T00:42:36.563Z,17.60
2017-09-10T00:45:03.326Z,13.33
2017-09-10T00:47:30.135Z,12.93
2017-09-10T00:49:56.894Z,15.07
2017-09-10T00:52:23.727Z,14.17
2017-09-10T00:54:50.551Z,14.57
2017-09-10T00:57:17.346Z,16.43
2017-09-10T00:59:44.103Z,16.43
2017-09-10T01:02:10.922Z,15.30
2017-09-10T01:04:37.696Z,12.27
2017-09-10T01:07:04.676Z,16.43
2017-09-10T01:09:31.508Z,14.13
2017-09-10T01:11:58.271Z,15.90
2017-09-10T01:14:25.028Z,16.07
2017-09-10T01:16:51.865Z,14.17
2017-09-10T01:19:18.665Z,15.80
2017-09-10T01:21:45.465Z,16.27
2017-09-10T01:24:12.271Z,21.20
2017-09-10T01:26:39.044Z,16.20
2017-09-10T01:29:05.810Z,15.87
2017-09-10T01:31:32.615Z,20.57
2017-09-10T01:33:59.359Z,15.87
2017-09-10T01:36:26.126Z,22.00
2017-09-10T01:38:52.940Z,20.93
2017-09-10T01:41:19.703Z,14.53
2017-09-10T01:43:46.461Z,17.27
2017-09-10T01:46:13.255Z,18.63
2017-09-10T01:48:40.009Z,17.40
2017-09-10T01:51:06.760Z,17.63
2017-09-10T01:53:33.548Z,18.17
2017-09-10T01:56:00.304Z,19.23
2017-09-10T01:58:27.103Z,15.73
2017-09-10T02:00:53.899Z,14.23
2017-09-10T02:03:20.645Z,16.03
2017-09-10T02:05:47.405Z,15.77
2017-09-10T02:08:14.176Z,21.70
2017-09-10T02:10:40.944Z,15.87
2017-09-10T02:13:07.697Z,21.17
2017-09-10T02:15:34.600Z,18.70
2017-09-10T02:18:01.375Z,18.57
2017-09-10T02:20:28.137Z,17.83
2017-09-10T02:22:54.927Z,16.00
2017-09-10T02:25:21.669Z,20.53
2017-09-10T02:27:48.414Z,16.57
2017-09-10T02:30:15.212Z,21.40
2017-09-10T02:32:42.019Z,19.90
2017-09-10T02:35:08.852Z,16.87
2017-09-10T02:37:35.654Z,20.07
2017-09-10T02:40:02.431Z,17.80
2017-09-10T02:42:29.175Z,21.93
2017-09-10T02:44:55.989Z,20.70
2017-09-10T02:47:22.732Z,26.70
2017-09-10T02:49:49.491Z,19.50
2017-09-10T02:52:16.316Z,18.10
2017-09-10T02:54:43.142Z,19.97
2017-09-10T02:57:09.891Z,21.50
2017-09-10T02:59:36.683Z,19.13
2017-09-10T03:02:03.431Z,19.10
2017-09-10T03:04:30.199Z,19.70
2017-09-10T03:06:56.998Z,26.33
2017-09-10T03:09:23.766Z,17.97
2017-09-10T03:11:50.543Z,18.77
2017-09-10T03:14:17.338Z,20.70
2017-09-10T03:16:44.085Z,19.47
2017-09-10T03:19:10.851Z,19.57
2017-09-10T03:21:37.647Z,20.70
2017-09-10T03:24:04.409Z,20.83
2017-09-10T03:26:31.156Z,23.13
2017-09-10T03:28:57.940Z,20.30
2017-09-10T03:31:24.699Z,20.20
2017-09-10T03:33:51.477Z,21.00
2017-09-10T03:36:18.263Z,22.00
2017-09-10T03:38:45.021Z,19.53
2017-09-10T03:41:11.771Z,25.10
2017-09-10T03:43:38.568Z,23.50
2017-09-10T03:46:05.358Z,20.77
2017-09-10T03:48:32.191Z,21.10
2017-09-10T03:50:58.988Z,18.30
2017-09-10T03:53:25.751Z,26.30
2017-09-10T03:55:52.531Z,23.23
2017-09-10T03:58:19.312Z,20.30
2017-09-10T04:00:46.108Z,22.70
2017-09-10T04:03:12.843Z,25.07
2017-09-10T04:05:39.672Z,21.40
2017-09-10T04:08:06.438Z,19.43
2017-09-10T04:10:33.198Z,22.10
2017-09-10T04:13:00.000Z,18.50
2017-09-10T04:15:26.751Z,25.37
2017-09-10T04:17:53.538Z,25.60
2017-09-10T04:20:20.362Z,25.20
2017-09-10T04:22:47.167Z,23.60
2017-09-10T04:25:13.956Z,21.27
2017-09-10T04:27:40.769Z,19.63
2017-09-10T04:30:07.581Z,22.17
2017-09-10T04:32:34.334Z,22.07
2017-09-10T04:35:01.145Z,21.50
2017-09-10T04:37:27.931Z,22.63
2017-09-10T04:39:54.723Z,21.20
2017-09-10T04:42:21.531Z,23.87
2017-09-10T04:44:48.307Z,22.73
2017-09-10T04:47:15.069Z,16.60
2017-09-10T04:49:41.895Z,17.53
2017-09-10T04:52:08.664Z,20.27
2017-09-10T04:54:35.441Z,20.43
2017-09-10T04:57:02.277Z,19.27
2017-09-10T04:59:29.062Z,26.20
2017-09-10T05:01:55.850Z,22.17
2017-09-10T05:04:22.640Z,22.23
2017-09-10T05:06:49.401Z,25.23
2017-09-10T05:09:16.151Z,19.20
2017-09-10T05:11:42.952Z,20.67
2017-09-10T05:14:09.723Z,25.00
2017-09-10T05:16:36.515Z,22.23
2017-09-10T05:19:03.323Z,21.70
2017-09-10T05:21:30.153Z,20.90
2017-09-10T05:23:56.937Z,24.97
2017-09-10T05:26:23.786Z,21.37
2017-09-10T05:28:50.535Z,18.83
2017-09-10T05:31:17.319Z,18.63
2017-09-10T05:33:44.146Z,21.40
2017-09-10T05:36:10.950Z,17.40
2017-09-10T05:38:37.731Z,22.57
2017-09-10T05:41:04.549Z,11.60
2017-09-10T05:43:31.307Z,17.80
2017-09-10T05:45:58.109Z,19.03
2017-09-10T05:48:24.949Z,17.77
2017-09-10T05:50:51.736Z,18.10
2017-09-10T05:53:18.502Z,16.53
2017-09-10T05:55:45.319Z,18.03
2017-09-10T05:58:12.075Z,19.93
2017-09-10T06:00:38.843Z,17.70
2017-09-10T06:03:05.634Z,14.53
2017-09-10T06:05:32.438Z,16.70
2017-09-10T06:07:59.247Z,19.37
2017-09-10T06:10:26.056Z,16.97
2017-09-10T06:12:52.819Z,14.80
2017-09-10T06:15:19.576Z,18.20
2017-09-10T06:17:46.378Z,17.43
2017-09-10T06:20:13.119Z,20.60
2017-09-10T06:22:39.859Z,17.40
2017-09-10T06:25:06.654Z,15.53
2017-09-10T06:27:33.420Z,17.20
2017-09-10T06:30:00.177Z,15.63
2017-09-10T06:32:26.969Z,16.77
2017-09-10T06:34:53.750Z,15.70
2017-09-10T06:37:20.503Z,15.60
2017-09-10T06:39:47.306Z,14.20
2017-09-10T06:42:14.112Z,19.70
2017-09-10T06:44:40.871Z,17.23
2017-09-10T06:47:07.678Z,15.27
2017-09-10T06:49:34.418Z,17.67
2017-09-10T06:52:01.172Z,17.33
2017-09-10T06:54:27.967Z,14.70
2017-09-10T06:56:54.753Z,16.63
2017-09-10T06:59:21.507Z,13.67
2017-09-10T07:01:48.318Z,19.20
2017-09-10T07:04:15.103Z,15.30
2017-09-10T07:06:41.843Z,18.70
2017-09-10T07:09:08.636Z,15.63
2017-09-10T07:11:35.387Z,16.23
2017-09-10T07:14:02.160Z,20.77
2017-09-10T07:16:28.968Z,17.80
2017-09-10T07:18:55.728Z,15.93
2017-09-10T07:21:22.511Z,14.83
2017-09-10T07:23:49.346Z,13.80
2017-09-10T07:26:16.116Z,14.13
2017-09-10T07:28:42.888Z,14.27
2017-09-10T07:31:09.668Z,14.10
2017-09-10T07:33:36.440Z,17.70
2017-09-10T07:36:03.188Z,14.77
2017-09-10T07:38:30.012Z,13.00
2017-09-10T07:40:56.794Z,13.23
2017-09-10T07:43:23.587Z,10.83
2017-09-10T07:45:50.420Z,13.53
2017-09-10T07:48:17.181Z,12.50
2017-09-10T07:50:43.923Z,15.40
2017-09-10T07:53:10.713Z,14.80
2017-09-10T07:55:37.482Z,13.73
2017-09-10T07:58:04.242Z,15.50
2017-09-10T08:00:31.067Z,11.73
2017-09-10T08:02:57.838Z,10.20
2017-09-10T08:05:24.584Z,11.67
2017-09-10T08:07:51.388Z,11.93
2017-09-10T08:10:18.158Z,14.23
2017-09-10T08:12:44.910Z,9.57
2017-09-10T08:15:11.700Z,17.47
2017-09-10T08:17:38.469Z,10.70
2017-09-10T08:20:05.271Z,12.33
2017-09-10T08:22:32.073Z,10.83
2017-09-10T08:24:58.838Z,14.80
2017-09-10T08:27:25.587Z,7.17
2017-09-10T08:29:52.371Z,12.33
2017-09-10T08:32:19.130Z,8.00
2017-09-10T08:34:45.871Z,8.60
2017-09-10T08:37:12.683Z,6.50
2017-09-10T08:39:39.551Z,7.87
2017-09-10T08:42:06.390Z,9.97
2017-09-10T08:44:33.240Z,9.83
2017-09-10T08:47:00.090Z,8.00
2017-09-10T08:49:26.884Z,10.33
2017-09-10T08:51:53.693Z,7.50
2017-09-10T08:54:20.572Z,9.63
2017-09-10T08:56:47.372Z,10.23
2017-09-10T08:59:14.223Z,9.43
2017-09-10T09:01:41.018Z,9.20
2017-09-10T09:04:07.927Z,9.00
2017-09-10T09:06:34.741Z,7.13
2017-09-10T09:09:01.541Z,7.27
2017-09-10T09:11:28.307Z,7.33
2017-09-10T09:13:55.099Z,6.53
2017-09-10T09:16:21.862Z,6.03
2017-09-10T09:18:48.662Z,6.00
2017-09-10T09:21:15.558Z,9.43
2017-09-10T09:23:42.367Z,6.30
2017-09-10T09:26:09.174Z,6.73
2017-09-10T09:28:36.001Z,3.90
2017-09-10T09:31:02.792Z,5.13
2017-09-10T09:33:29.634Z,5.97
2017-09-10T09:35:56.410Z,11.53
2017-09-10T09:38:23.169Z,8.60
2017-09-10T09:40:49.973Z,6.73
2017-09-10T09:43:16.850Z,4.53
2017-09-10T09:45:43.597Z,6.17
2017-09-10T09:48:10.433Z,6.00
2017-09-10T09:50:37.287Z,8.17
2017-09-10T09:53:04.083Z,2.13
2017-09-10T09:55:30.859Z,6.50
2017-09-10T09:57:57.675Z,6.83
2017-09-10T10:00:24.476Z,6.60
2017-09-10T10:02:51.287Z,6.03
2017-09-10T10:05:18.111Z,4.10
2017-09-10T10:07:44.880Z,5.47
2017-09-10T10:10:11.644Z,4.20
2017-09-10T10:12:38.421Z,4.23
2017-09-10T10:15:05.162Z,5.70
2017-09-10T10:17:31.998Z,4.63
2017-09-10T10:19:58.834Z,5.20
2017-09-10T10:22:25.695Z,6.60
2017-09-10T10:24:52.456Z,7.20
2017-09-10T10:27:19.379Z,10.43
2017-09-10T10:29:46.149Z,6.43
2017-09-10T10:32:13.065Z,5.63
2017-09-10T10:34:39.888Z,4.70
2017-09-10T10:37:06.682Z,6.13
2017-09-10T10:39:33.412Z,5.77
2017-09-10T10:42:00.193Z,16.67
2017-09-10T10:44:26.965Z,4.60
2017-09-10T10:46:53.822Z,4.33
2017-09-10T10:49:20.614Z,3.50
2017-09-10T10:51:47.364Z,3.50
2017-09-10T10:54:14.105Z,4.37
2017-09-10T10:56:40.928Z,2.87
2017-09-10T10:59:07.687Z,5.57
2017-09-10T11:01:34.476Z,4.70
2017-09-10T11:04:01.288Z,4.30
2017-09-10T11:06:28.055Z,6.90
2017-09-10T11:08:54.828Z,5.40
2017-09-10T11:11:21.660Z,3.50
2017-09-10T11:13:48.413Z,8.37
2017-09-10T11:16:15.155Z,6.07
2017-09-10T11:18:41.938Z,6.80
2017-09-10T11:21:08.675Z,6.53
2017-09-10T11:23:35.457Z,3.70
2017-09-10T11:26:02.231Z,5.27
2017-09-10T11:28:28.971Z,5.47
2017-09-10T11:30:55.711Z,3.80
2017-09-10T11:33:22.489Z,2.50
2017-09-10T11:35:49.295Z,10.33
2017-09-10T11:38:16.062Z,3.40
2017-09-10T11:40:42.876Z,3.30
2017-09-10T11:43:09.616Z,3.73
2017-09-10T11:45:36.382Z,5.30
2017-09-10T11:48:03.183Z,4.00
2017-09-10T11:50:29.950Z,5.57
2017-09-10T11:52:56.724Z,4.40
2017-09-10T11:55:23.500Z,3.60
2017-09-10T11:57:50.262Z,7.23
2017-09-10T12:00:17.017Z,4.27
2017-09-10T12:02:43.788Z,5.33
2017-09-10T12:05:10.565Z,7.23
2017-09-10T12:07:37.329Z,4.13
2017-09-10T12:10:04.118Z,4.23
2017-09-10T12:12:30.855Z,6.63
2017-09-10T12:14:57.639Z,6.10
2017-09-10T12:17:24.380Z,5.90
2017-09-10T12:19:51.118Z,6.23
2017-09-10T12:22:17.915Z,7.37
2017-09-10T12:24:44.653Z,7.70
2017-09-10T12:27:11.406Z,8.80
2017-09-10T12:29:38.180Z,6.97
2017-09-10T12:32:04.954Z,5.20
2017-09-10T12:34:31.703Z,7.03
2017-09-10T12:36:58.475Z,5.17
2017-09-10T12:39:25.234Z,6.67
2017-09-10T12:41:51.967Z,7.67
2017-09-10T12:44:18.771Z,8.67
2017-09-10T12:46:45.543Z,6.60
2017-09-10T12:49:12.358Z,7.07
2017-09-10T12:51:39.091Z,6.87
2017-09-10T12:54:05.845Z,5.67
2017-09-10T12:56:32.624Z,5.23
2017-09-10T12:58:59.363Z,6.87
2017-09-10T13:01:26.118Z,7.80
2017-09-10T13:03:52.958Z,4.90
2017-09-10T13:06:19.710Z,6.50
2017-09-10T13:08:46.551Z,6.80
2017-09-10T13:11:13.398Z,9.03
2017-09-10T13:13:40.182Z,6.87
2017-09-10T13:16:06.919Z,8.70
2017-09-10T13:18:33.710Z,6.60
2017-09-10T13:21:00.448Z,8.20
2017-09-10T13:23:27.447Z,5.37
2017-09-10T13:25:54.245Z,2.97
2017-09-10T13:28:21.042Z,4.20
2017-09-10T13:30:47.780Z,4.90
2017-09-10T13:33:14.570Z,5.53
2017-09-10T13:35:41.308Z,4.03
2017-09-10T13:38:08.046Z,4.73
2017-09-10T13:40:34.860Z,6.53
2017-09-10T13:43:01.650Z,3.97
2017-09-10T13:45:28.416Z,4.70
2017-09-10T13:47:55.182Z,6.33
2017-09-10T13:50:21.932Z,4.57
2017-09-10T13:52:48.790Z,7.50
2017-09-10T13:55:15.599Z,4.53
2017-09-10T13:57:42.374Z,5.87
2017-09-10T14:00:09.304Z,8.83
2017-09-10T14:02:36.139Z,4.60
2017-09-10T14:05:02.904Z,4.23
2017-09-10T14:07:29.639Z,6.18
2017-09-10T14:09:56.453Z,3.80
2017-09-10T14:12:23.211Z,3.67
2017-09-10T14:14:49.959Z,5.70
2017-09-10T14:17:16.758Z,3.30
2017-09-10T14:19:43.491Z,3.13
2017-09-10T14:22:10.260Z,5.10
2017-09-10T14:24:37.032Z,5.70
